createdAt,value
2019-04-01T00:02:06.563Z,10.61
2019-04-01T00:04:33.193Z,10.61
2019-04-01T00:06:59.718Z,10.61
2019-04-01T00:09:26.339Z,10.58
2019-04-01T00:11:52.986Z,10.49
2019-04-01T00:14:19.609Z,10.43
2019-04-01T00:16:46.331Z,10.39
2019-04-01T00:19:12.929Z,10.36
2019-04-01T00:21:39.482Z,10.31
2019-04-01T00:24:06.025Z,10.29
2019-04-01T00:26:32.639Z,10.26
2019-04-01T00:28:59.166Z,10.19
2019-04-01T00:31:25.851Z,10.14
2019-04-01T00:33:52.371Z,10.15
2019-04-01T00:36:18.993Z,10.15
2019-04-01T00:38:45.729Z,10.13
2019-04-01T00:41:12.358Z,10.09
2019-04-01T00:43:58.678Z,10.09
2019-04-01T00:46:25.531Z,10.06
2019-04-01T00:48:52.055Z,10.04
2019-04-01T00:51:18.617Z,10.00
2019-04-01T00:53:45.252Z,9.98
2019-04-01T00:56:12.141Z,9.97
2019-04-01T00:58:38.761Z,9.93
2019-04-01T01:01:05.391Z,9.95
2019-04-01T01:03:31.907Z,9.93
2019-04-01T01:05:58.443Z,9.88
2019-04-01T01:08:25.114Z,9.87
2019-04-01T01:10:51.861Z,9.82
2019-04-01T01:13:18.449Z,9.82
2019-04-01T01:15:45.064Z,9.82
2019-04-01T01:18:11.727Z,9.75
2019-04-01T01:20:38.340Z,9.74
2019-04-01T01:23:04.888Z,9.70
2019-04-01T01:25:31.646Z,9.67
2019-04-01T01:27:58.277Z,9.68
2019-04-01T01:30:24.893Z,9.64
2019-04-01T01:32:51.475Z,9.64
2019-04-01T01:35:18.081Z,9.63
2019-04-01T01:37:44.668Z,9.61
2019-04-01T01:40:13.904Z,9.59
2019-04-01T01:42:40.461Z,9.59
2019-04-01T01:45:07.107Z,9.57
2019-04-01T01:47:33.695Z,9.54
2019-04-01T01:50:00.383Z,9.56
2019-04-01T01:52:27.049Z,9.57
2019-04-01T01:54:53.581Z,9.57
2019-04-01T01:57:20.217Z,9.59
2019-04-01T01:59:46.751Z,9.58
2019-04-01T02:02:13.297Z,9.56
2019-04-01T02:04:39.832Z,9.55
2019-04-01T02:07:06.460Z,9.52
2019-04-01T02:09:32.991Z,9.49
2019-04-01T02:11:59.919Z,9.48
2019-04-01T02:14:26.882Z,9.44
2019-04-01T02:16:53.411Z,9.43
2019-04-01T02:19:20.000Z,9.43
2019-04-01T02:21:46.514Z,9.43
2019-04-01T02:24:13.175Z,9.43
2019-04-01T02:26:39.698Z,9.43
2019-04-01T02:29:06.421Z,9.43
2019-04-01T02:31:33.056Z,9.42
2019-04-01T02:33:59.581Z,9.41
2019-04-01T02:36:26.116Z,9.37
2019-04-01T02:38:52.773Z,9.36
2019-04-01T02:41:19.397Z,9.35
2019-04-01T02:43:46.079Z,9.32
2019-04-01T02:46:12.838Z,9.30
2019-04-01T02:48:39.361Z,9.29
2019-04-01T02:51:06.007Z,9.27
2019-04-01T02:53:32.683Z,9.25
2019-04-01T02:55:59.475Z,9.20
2019-04-01T02:58:25.996Z,9.21
2019-04-01T03:00:52.553Z,9.21
2019-04-01T03:03:19.080Z,9.21
2019-04-01T03:05:45.615Z,9.18
2019-04-01T03:08:12.280Z,9.16
2019-04-01T03:10:38.806Z,9.16
2019-04-01T03:13:05.445Z,9.14
2019-04-01T03:15:32.318Z,9.12
2019-04-01T03:17:58.989Z,9.12
2019-04-01T03:20:25.518Z,9.09
2019-04-01T03:22:52.158Z,9.07
2019-04-01T03:25:18.897Z,9.07
2019-04-01T03:27:45.415Z,9.06
2019-04-01T03:30:12.239Z,9.03
2019-04-01T03:32:44.742Z,9.02
2019-04-01T03:35:07.734Z,9.02
2019-04-01T03:37:34.367Z,8.98
2019-04-01T03:40:00.893Z,8.95
2019-04-01T03:42:28.629Z,8.92
2019-04-01T03:44:55.680Z,8.92
2019-04-01T03:47:22.416Z,8.89
2019-04-01T03:49:48.971Z,8.88
2019-04-01T03:52:15.723Z,8.86
2019-04-01T03:54:42.280Z,8.83
2019-04-01T03:57:09.145Z,8.82
2019-04-01T03:59:36.057Z,8.80
2019-04-01T04:02:15.431Z,8.81
2019-04-01T04:04:42.134Z,8.79
2019-04-01T04:07:11.052Z,8.77
2019-04-01T04:09:40.664Z,8.74
2019-04-01T04:12:07.513Z,8.74
2019-04-01T04:14:34.054Z,8.74
2019-04-01T04:17:00.792Z,8.74
2019-04-01T04:19:27.345Z,8.71
2019-04-01T04:21:54.057Z,8.71
2019-04-01T04:24:20.834Z,8.70
2019-04-01T04:26:47.483Z,8.67
2019-04-01T04:29:14.201Z,8.67
2019-04-01T04:31:40.960Z,8.65
2019-04-01T04:34:07.657Z,8.67
2019-04-01T04:36:34.195Z,8.64
2019-04-01T04:39:00.907Z,8.66
2019-04-01T04:41:27.448Z,8.64
2019-04-01T04:43:54.013Z,8.63
2019-04-01T04:46:21.301Z,8.62
2019-04-01T04:48:48.093Z,8.63
2019-04-01T04:51:14.936Z,8.62
2019-04-01T04:53:41.494Z,8.60
2019-04-01T04:56:08.129Z,8.61
2019-04-01T04:58:34.680Z,8.62
2019-04-01T05:01:02.146Z,8.63
2019-04-01T05:03:29.508Z,8.61
2019-04-01T05:05:56.642Z,8.61
2019-04-01T05:08:23.871Z,8.59
2019-04-01T05:10:51.107Z,8.59
2019-04-01T05:13:18.150Z,8.57
2019-04-01T05:15:44.805Z,8.58
2019-04-01T05:18:11.325Z,8.53
2019-04-01T05:20:38.038Z,8.55
2019-04-01T05:23:04.671Z,8.43
2019-04-01T05:25:31.984Z,8.56
2019-04-01T05:28:00.630Z,8.55
2019-04-01T05:30:29.096Z,8.56
2019-04-01T05:32:57.153Z,8.58
2019-04-01T05:35:23.773Z,8.58
2019-04-01T05:37:50.646Z,8.56
2019-04-01T05:40:17.264Z,8.56
2019-04-01T05:42:44.129Z,8.56
2019-04-01T05:45:10.777Z,8.58
2019-04-01T05:47:42.954Z,8.59
2019-04-01T05:50:09.858Z,8.62
2019-04-01T05:52:36.818Z,8.64
2019-04-01T05:55:04.327Z,8.66
2019-04-01T05:57:30.953Z,8.67
2019-04-01T05:59:59.731Z,8.71
2019-04-01T06:02:26.379Z,8.75
2019-04-01T06:04:53.073Z,8.76
2019-04-01T06:07:19.721Z,8.76
2019-04-01T06:09:46.366Z,8.77
2019-04-01T06:12:13.103Z,8.73
2019-04-01T06:14:39.810Z,8.77
2019-04-01T06:17:06.560Z,8.81
2019-04-01T06:19:33.249Z,8.85
2019-04-01T06:21:59.863Z,8.90
2019-04-01T06:24:26.542Z,8.94
2019-04-01T06:26:53.265Z,8.99
2019-04-01T06:29:19.895Z,9.06
2019-04-01T06:31:46.518Z,9.13
2019-04-01T06:34:15.480Z,9.19
2019-04-01T06:36:42.109Z,9.24
2019-04-01T06:39:08.791Z,9.30
2019-04-01T06:41:35.413Z,9.37
2019-04-01T06:44:02.287Z,9.41
2019-04-01T06:46:28.951Z,9.48
2019-04-01T06:48:55.752Z,9.55
2019-04-01T06:51:22.372Z,9.62
2019-04-01T06:53:48.899Z,9.66
2019-04-01T06:56:15.553Z,9.73
2019-04-01T06:58:42.184Z,9.79
2019-04-01T07:01:08.926Z,9.88
2019-04-01T07:03:35.564Z,9.94
2019-04-01T07:06:02.355Z,10.01
2019-04-01T07:08:28.989Z,10.07
2019-04-01T07:10:55.663Z,10.14
2019-04-01T07:13:22.368Z,10.22
2019-04-01T07:15:49.025Z,10.28
2019-04-01T07:18:15.644Z,10.37
2019-04-01T07:20:42.322Z,10.50
2019-04-01T07:23:09.112Z,10.59
2019-04-01T07:25:35.812Z,10.70
2019-04-01T07:28:02.628Z,10.81
2019-04-01T07:30:29.313Z,10.94
2019-04-01T07:32:58.614Z,11.06
2019-04-01T07:35:25.262Z,11.20
2019-04-01T07:37:51.921Z,11.37
2019-04-01T07:40:18.567Z,11.53
2019-04-01T07:42:45.207Z,11.69
2019-04-01T07:45:11.970Z,11.86
2019-04-01T07:47:38.658Z,12.02
2019-04-01T07:50:05.501Z,12.26
2019-04-01T07:52:32.175Z,12.44
2019-04-01T07:54:59.321Z,12.61
2019-04-01T07:57:25.984Z,12.79
2019-04-01T07:59:52.615Z,13.05
2019-04-01T08:02:19.256Z,13.28
2019-04-01T08:04:45.914Z,13.50
2019-04-01T08:07:13.496Z,13.78
2019-04-01T08:09:40.511Z,14.07
2019-04-01T08:12:07.135Z,14.26
2019-04-01T08:14:33.785Z,14.48
2019-04-01T08:17:00.633Z,14.57
2019-04-01T08:19:27.268Z,14.66
2019-04-01T08:21:54.143Z,14.64
2019-04-01T08:24:20.774Z,14.61
2019-04-01T08:26:47.485Z,14.63
2019-04-01T08:29:28.967Z,14.65
2019-04-01T08:31:42.594Z,14.63
2019-04-01T08:34:09.432Z,14.79
2019-04-01T08:36:36.048Z,14.90
2019-04-01T08:39:07.638Z,14.99
2019-04-01T08:41:34.376Z,15.10
2019-04-01T08:44:03.210Z,15.22
2019-04-01T08:46:29.495Z,15.43
2019-04-01T08:48:56.235Z,15.59
2019-04-01T08:51:22.861Z,15.86
2019-04-01T08:53:49.537Z,16.14
2019-04-01T19:01:47.389Z,13.58
2019-04-01T19:04:14.008Z,13.45
2019-04-01T19:06:40.680Z,13.40
2019-04-01T19:09:09.336Z,13.39
2019-04-01T19:11:36.147Z,13.38
2019-04-01T19:14:03.466Z,13.35
2019-04-01T19:16:30.485Z,13.30
2019-04-01T19:18:57.319Z,13.28
2019-04-01T19:21:24.397Z,13.23
2019-04-01T19:23:53.358Z,13.17
2019-04-01T19:26:23.417Z,13.11
2019-04-01T19:28:53.762Z,13.06
2019-04-01T19:31:20.565Z,13.05
2019-04-01T19:33:47.203Z,13.03
2019-04-01T19:36:15.116Z,12.96
2019-04-01T19:38:41.859Z,12.91
2019-04-01T19:43:58.392Z,12.85
2019-04-01T19:46:25.092Z,12.78
2019-04-01T19:48:51.842Z,12.74
2019-04-01T19:51:19.503Z,12.72
2019-04-01T19:53:46.251Z,12.69
2019-04-01T19:56:13.009Z,12.66
2019-04-01T19:58:40.681Z,12.59
2019-04-01T20:01:07.352Z,12.55
2019-04-01T20:03:34.081Z,12.52
2019-04-01T20:06:00.817Z,12.54
2019-04-01T20:08:27.569Z,12.47
2019-04-01T20:10:54.378Z,12.41
2019-04-01T20:13:21.190Z,12.40
2019-04-01T20:15:48.955Z,12.38
2019-04-01T20:18:16.298Z,12.30
2019-04-01T20:20:43.024Z,12.27
2019-04-01T20:23:09.945Z,12.21
2019-04-01T20:25:36.828Z,12.18
2019-04-01T20:28:03.741Z,12.15
2019-04-01T20:30:30.578Z,12.10
2019-04-01T20:32:57.370Z,12.08
2019-04-01T20:35:24.179Z,12.01
2019-04-01T20:37:51.005Z,11.96
2019-04-01T20:40:18.889Z,11.91
2019-04-01T20:42:46.566Z,11.88
2019-04-01T20:45:13.900Z,11.88
2019-04-01T20:47:40.675Z,11.87
2019-04-01T20:50:08.791Z,11.80
2019-04-01T20:52:35.547Z,11.77
2019-04-01T20:55:02.779Z,11.74
2019-04-01T20:57:29.633Z,11.69
2019-04-01T20:59:56.500Z,11.65
2019-04-01T21:02:23.307Z,11.61
2019-04-01T21:04:52.259Z,11.58
2019-04-01T21:07:19.108Z,11.54
2019-04-01T21:09:47.685Z,11.51
2019-04-01T21:12:14.422Z,11.49
2019-04-01T21:14:43.125Z,11.44
2019-04-01T21:17:10.784Z,11.39
2019-04-01T21:19:37.694Z,11.33
2019-04-01T21:22:04.354Z,11.35
2019-04-01T21:24:31.042Z,11.28
2019-04-01T21:26:57.765Z,11.21
2019-04-01T21:29:24.511Z,11.18
2019-04-01T21:31:54.282Z,11.18
2019-04-01T21:34:24.047Z,11.11
2019-04-01T21:36:51.766Z,11.08
2019-04-01T21:39:18.372Z,11.02
2019-04-01T21:41:46.265Z,10.97
2019-04-01T21:44:14.199Z,10.91
2019-04-01T21:46:41.130Z,10.90
2019-04-01T21:49:08.075Z,10.82
2019-04-01T21:51:35.805Z,10.81
2019-04-01T21:54:02.581Z,10.75
2019-04-01T21:56:29.292Z,10.71
2019-04-01T21:58:56.080Z,10.70
2019-04-01T22:01:22.894Z,10.70
2019-04-01T22:03:49.568Z,10.66
2019-04-01T22:06:16.228Z,10.63
2019-04-01T22:08:42.909Z,10.59
2019-04-01T22:11:09.516Z,10.58
2019-04-01T22:13:36.169Z,10.52
2019-04-01T22:16:02.904Z,10.44
2019-04-01T22:18:29.592Z,10.41
2019-04-01T22:20:56.294Z,10.40
2019-04-01T22:23:23.039Z,10.33
2019-04-01T22:25:49.924Z,10.33
2019-04-01T22:28:16.570Z,10.28
2019-04-01T22:30:43.238Z,10.24
2019-04-01T22:33:11.602Z,10.21
2019-04-01T22:35:39.362Z,10.17
2019-04-01T22:38:06.880Z,10.14
2019-04-01T22:40:33.684Z,10.10
2019-04-01T22:43:00.520Z,10.10
2019-04-01T22:45:27.312Z,10.09
2019-04-01T22:47:54.128Z,10.02
2019-04-01T22:50:20.973Z,10.03
2019-04-01T22:52:47.710Z,9.98
2019-04-01T22:55:14.376Z,9.94
2019-04-01T22:57:41.063Z,9.90
2019-04-01T23:00:08.002Z,9.87
2019-04-01T23:02:34.682Z,9.85
2019-04-01T23:05:01.526Z,9.81
2019-04-01T23:07:29.312Z,9.79
2019-04-01T23:09:55.900Z,9.75
2019-04-01T23:12:22.789Z,9.72
2019-04-01T23:14:49.508Z,9.70
2019-04-01T23:17:16.346Z,9.69
2019-04-01T23:19:42.992Z,9.65
2019-04-01T23:22:09.796Z,9.60
2019-04-01T23:24:36.452Z,9.60
2019-04-01T23:27:03.282Z,9.58
2019-04-01T23:29:29.858Z,9.56
2019-04-01T23:31:56.500Z,9.54
2019-04-01T23:34:23.304Z,9.49
2019-04-01T23:36:50.112Z,9.45
2019-04-01T23:39:16.858Z,9.41
2019-04-01T23:41:43.521Z,9.39
2019-04-01T23:44:10.753Z,9.36
2019-04-01T23:46:37.431Z,9.34
2019-04-01T23:49:04.596Z,9.31
2019-04-01T23:51:31.192Z,9.28
2019-04-01T23:53:57.794Z,9.25
2019-04-01T23:56:24.450Z,9.22
2019-04-01T23:58:51.567Z,9.14
